createdAt,value
2018-07-24T00:00:52.336Z,19.10
2018-07-24T00:03:20.602Z,21.23
2018-07-24T00:05:48.858Z,19.93
2018-07-24T00:08:17.185Z,20.70
2018-07-24T00:10:45.455Z,21.77
2018-07-24T00:13:13.713Z,21.07
2018-07-24T00:15:42.018Z,22.73
2018-07-24T00:18:10.276Z,22.43
2018-07-24T00:20:38.577Z,21.37
2018-07-24T00:23:07.018Z,22.50
2018-07-24T00:25:35.298Z,23.17
2018-07-24T00:28:03.582Z,23.03
2018-07-24T00:30:31.847Z,22.20
2018-07-24T00:33:00.230Z,19.53
2018-07-24T00:35:28.254Z,21.07
2018-07-24T00:37:56.511Z,21.53
2018-07-24T00:40:24.792Z,19.83
2018-07-24T00:42:53.146Z,21.03
2018-07-24T00:45:21.392Z,21.17
2018-07-24T00:47:49.880Z,21.10
2018-07-24T00:50:18.131Z,22.27
2018-07-24T00:52:46.378Z,21.90
2018-07-24T00:55:14.637Z,20.87
2018-07-24T00:57:42.926Z,20.87
2018-07-24T01:00:11.993Z,22.80
2018-07-24T01:02:40.237Z,22.13
2018-07-24T01:05:08.497Z,22.90
2018-07-24T01:07:38.845Z,23.23
2018-07-24T01:10:08.156Z,21.83
2018-07-24T01:12:36.465Z,22.80
2018-07-24T01:15:05.522Z,22.97
2018-07-24T01:17:33.811Z,23.17
2018-07-24T01:20:02.082Z,23.97
2018-07-24T01:22:30.491Z,24.33
2018-07-24T01:24:58.754Z,24.37
2018-07-24T01:27:26.749Z,25.20
2018-07-24T01:29:55.008Z,24.80
2018-07-24T01:32:23.320Z,24.30
2018-07-24T01:34:51.580Z,23.63
2018-07-24T01:37:19.956Z,21.80
2018-07-24T01:39:48.214Z,22.90
2018-07-24T01:42:16.474Z,21.50
2018-07-24T01:44:44.904Z,22.47
2018-07-24T01:47:12.899Z,21.60
2018-07-24T01:49:41.199Z,21.63
2018-07-24T01:52:09.459Z,24.30
2018-07-24T01:54:37.726Z,23.47
2018-07-24T01:57:06.068Z,21.77
2018-07-24T01:59:34.358Z,23.00
2018-07-24T02:02:02.617Z,21.67
2018-07-24T02:04:30.685Z,22.97
2018-07-24T02:06:58.977Z,24.87
2018-07-24T02:09:27.255Z,23.33
2018-07-24T02:11:55.522Z,24.37
2018-07-24T02:14:23.865Z,23.97
2018-07-24T02:16:52.131Z,24.20
2018-07-24T02:19:20.397Z,21.83
2018-07-24T02:21:48.676Z,22.17
2018-07-24T02:24:16.942Z,23.53
2018-07-24T02:26:45.212Z,21.83
2018-07-24T02:29:13.478Z,24.10
2018-07-24T02:31:41.755Z,23.03
2018-07-24T02:34:10.018Z,22.03
2018-07-24T02:36:38.324Z,21.97
2018-07-24T02:39:09.274Z,22.50
2018-07-24T02:41:37.548Z,21.07
2018-07-24T02:44:05.994Z,21.80
2018-07-24T02:46:34.320Z,21.93
2018-07-24T02:49:02.694Z,23.27
2018-07-24T02:51:31.206Z,20.83
2018-07-24T02:53:59.817Z,21.80
2018-07-24T02:56:29.163Z,23.43
2018-07-24T02:58:57.437Z,21.60
2018-07-24T03:01:26.098Z,22.40
2018-07-24T03:03:54.370Z,20.70
2018-07-24T03:06:22.639Z,22.67
2018-07-24T03:08:51.187Z,21.57
2018-07-24T03:11:19.479Z,21.53
2018-07-24T03:13:47.752Z,22.87
2018-07-24T03:16:16.107Z,23.87
2018-07-24T03:18:44.307Z,24.10
2018-07-24T03:21:12.626Z,24.70
2018-07-24T03:23:40.910Z,25.97
2018-07-24T03:26:09.201Z,25.80
2018-07-24T03:28:37.483Z,27.57
2018-07-24T03:31:05.763Z,25.37
2018-07-24T03:33:34.039Z,26.37
2018-07-24T03:36:02.301Z,22.87
2018-07-24T03:38:30.585Z,23.53
2018-07-24T03:40:58.984Z,23.67
2018-07-24T03:43:27.270Z,25.83
2018-07-24T03:45:55.530Z,23.83
2018-07-24T03:48:23.827Z,25.50
2018-07-24T03:50:52.162Z,25.77
2018-07-24T03:53:20.431Z,26.53
2018-07-24T03:55:49.176Z,25.27
2018-07-24T03:58:17.450Z,23.90
2018-07-24T04:00:45.723Z,23.00
2018-07-24T04:03:14.244Z,23.17
2018-07-24T04:05:42.845Z,23.33
2018-07-24T04:08:11.131Z,22.33
2018-07-24T04:10:39.426Z,22.03
2018-07-24T04:13:07.724Z,22.17
2018-07-24T04:15:36.183Z,23.90
2018-07-24T04:18:04.468Z,24.43
2018-07-24T04:20:32.756Z,25.37
2018-07-24T04:23:01.048Z,23.93
2018-07-24T04:25:29.367Z,21.10
2018-07-24T04:27:57.738Z,23.00
2018-07-24T04:30:25.897Z,20.93
2018-07-24T04:32:54.186Z,20.63
2018-07-24T04:35:22.464Z,22.10
2018-07-24T04:37:50.771Z,20.53
2018-07-24T04:40:19.147Z,20.03
2018-07-24T04:42:47.376Z,21.33
2018-07-24T04:45:15.686Z,21.10
2018-07-24T04:47:44.072Z,21.17
2018-07-24T04:50:12.352Z,19.37
2018-07-24T04:52:40.713Z,20.23
2018-07-24T04:55:08.996Z,19.53
2018-07-24T04:57:37.271Z,18.30
2018-07-24T05:00:06.064Z,19.90
2018-07-24T05:02:34.448Z,20.83
2018-07-24T05:05:02.711Z,17.93
2018-07-24T05:07:30.998Z,19.13
2018-07-24T05:09:59.271Z,19.20
2018-07-24T05:12:27.566Z,20.07
2018-07-24T05:14:55.835Z,19.73
2018-07-24T05:17:24.106Z,19.73
2018-07-24T05:19:52.373Z,18.23
2018-07-24T05:22:20.637Z,18.33
2018-07-24T05:24:48.898Z,19.97
2018-07-24T05:27:17.213Z,21.00
2018-07-24T05:29:45.471Z,21.10
2018-07-24T05:32:13.926Z,20.67
2018-07-24T05:34:42.423Z,22.10
2018-07-24T05:37:11.120Z,21.37
2018-07-24T05:39:39.754Z,21.53
2018-07-24T05:42:08.085Z,21.47
2018-07-24T05:44:36.421Z,22.63
2018-07-24T05:47:05.375Z,22.47
2018-07-24T05:49:33.730Z,21.43
2018-07-24T05:52:02.071Z,21.60
2018-07-24T05:54:30.430Z,22.30
2018-07-24T05:56:58.671Z,21.57
2018-07-24T05:59:27.230Z,21.63
2018-07-24T06:01:56.217Z,21.77
2018-07-24T06:04:25.169Z,22.23
2018-07-24T06:06:54.457Z,22.00
2018-07-24T06:09:23.346Z,21.67
2018-07-24T06:11:52.260Z,23.40
2018-07-24T06:14:21.308Z,21.13
2018-07-24T06:16:50.331Z,21.60
2018-07-24T06:19:19.204Z,23.57
2018-07-24T06:21:47.763Z,21.73
2018-07-24T06:24:16.761Z,24.30
2018-07-24T06:26:46.158Z,20.57
2018-07-24T06:29:15.119Z,20.53
2018-07-24T06:31:44.027Z,21.10
2018-07-24T06:34:13.151Z,19.50
2018-07-24T06:36:42.006Z,21.20
2018-07-24T06:39:12.468Z,20.17
2018-07-24T06:41:42.330Z,21.93
2018-07-24T06:44:12.277Z,22.80
2018-07-24T06:46:41.279Z,23.10
2018-07-24T06:49:10.289Z,22.43
2018-07-24T06:51:38.735Z,22.60
2018-07-24T06:54:06.960Z,23.57
2018-07-24T06:56:35.303Z,23.20
2018-07-24T06:59:03.595Z,25.13
2018-07-24T07:01:31.875Z,24.67
2018-07-24T07:04:00.213Z,23.17
2018-07-24T07:06:28.603Z,24.53
2018-07-24T07:09:05.459Z,25.07
2018-07-24T07:11:34.394Z,24.73
2018-07-24T07:14:03.290Z,25.50
2018-07-24T07:16:31.573Z,26.23
2018-07-24T07:18:59.853Z,23.33
2018-07-24T07:21:28.182Z,26.80
2018-07-24T07:23:56.459Z,22.13
2018-07-24T07:26:24.742Z,19.60
2018-07-24T07:28:53.028Z,19.37
2018-07-24T07:31:21.309Z,15.40
2018-07-24T07:33:49.601Z,15.20
2018-07-24T07:36:17.873Z,17.12
2018-07-24T07:38:46.198Z,19.00
2018-07-24T07:41:14.479Z,16.32
2018-07-24T07:43:42.762Z,17.00
2018-07-24T07:46:11.266Z,12.88
2018-07-24T07:48:39.544Z,14.87
2018-07-24T07:51:07.835Z,16.42
2018-07-24T07:53:36.149Z,13.75
2018-07-24T07:56:04.450Z,13.13
2018-07-24T07:58:32.804Z,13.25
2018-07-24T08:01:01.100Z,14.15
2018-07-24T08:03:29.385Z,14.45
2018-07-24T08:05:57.727Z,14.87
2018-07-24T08:08:26.003Z,13.83
2018-07-24T08:10:54.294Z,12.43
2018-07-24T08:13:22.568Z,14.30
2018-07-24T08:15:50.577Z,12.43
2018-07-24T08:18:18.843Z,10.95
2018-07-24T08:20:47.116Z,11.60
2018-07-24T08:23:15.383Z,12.25
2018-07-24T08:25:43.399Z,12.43
2018-07-24T08:28:11.684Z,10.40
2018-07-24T08:30:39.935Z,13.53
2018-07-24T08:33:08.208Z,11.45
2018-07-24T08:35:36.486Z,11.85
2018-07-24T08:38:04.984Z,12.55
2018-07-24T08:40:33.256Z,12.18
2018-07-24T08:43:01.510Z,12.25
2018-07-24T08:45:29.770Z,10.78
2018-07-24T08:47:58.038Z,12.50
2018-07-24T08:50:26.355Z,11.85
2018-07-24T08:52:54.676Z,12.45
2018-07-24T08:55:23.197Z,15.45
2018-07-24T08:57:51.223Z,13.08
2018-07-24T09:00:19.492Z,16.15
2018-07-24T09:02:47.754Z,11.50
2018-07-24T09:05:16.026Z,11.65
2018-07-24T09:07:44.288Z,10.60
2018-07-24T09:10:12.698Z,13.58
2018-07-24T09:12:40.938Z,11.95
2018-07-24T09:15:09.236Z,11.83
2018-07-24T09:17:37.552Z,11.85
2018-07-24T09:20:05.900Z,11.68
2018-07-24T09:22:34.460Z,10.82
2018-07-24T09:25:02.735Z,10.85
2018-07-24T09:27:31.014Z,11.50
2018-07-24T09:29:59.323Z,11.88
2018-07-24T09:32:27.860Z,10.23
2018-07-24T09:34:56.130Z,8.98
2018-07-24T09:37:24.430Z,8.80
2018-07-24T09:39:52.721Z,7.53
2018-07-24T09:42:20.998Z,7.30
2018-07-24T09:44:49.281Z,8.18
2018-07-24T09:47:17.544Z,7.28
2018-07-24T09:49:45.833Z,8.65
2018-07-24T09:52:14.106Z,9.33
2018-07-24T09:54:42.395Z,11.73
2018-07-24T09:57:10.663Z,8.83
2018-07-24T09:59:38.951Z,8.78
2018-07-24T10:02:07.254Z,7.95
2018-07-24T10:04:35.548Z,8.88
2018-07-24T10:07:03.885Z,8.25
2018-07-24T10:09:32.163Z,8.18
2018-07-24T10:12:00.471Z,7.78
2018-07-24T10:14:28.843Z,8.40
2018-07-24T10:16:57.189Z,8.30
2018-07-24T10:19:25.559Z,8.33
2018-07-24T10:21:53.839Z,8.73
2018-07-24T10:24:22.174Z,7.85
2018-07-24T10:26:50.410Z,6.50
2018-07-24T10:29:18.680Z,7.58
2018-07-24T10:31:46.956Z,6.65
2018-07-24T10:34:15.231Z,7.22
2018-07-24T10:36:43.528Z,7.12
2018-07-24T10:39:12.510Z,7.58
2018-07-24T10:41:41.234Z,8.13
2018-07-24T10:44:09.499Z,7.62
2018-07-24T10:46:38.557Z,8.15
2018-07-24T10:49:07.767Z,6.12
2018-07-24T10:51:36.071Z,5.28
2018-07-24T10:54:04.352Z,5.45
2018-07-24T10:56:33.186Z,5.15
2018-07-24T10:59:01.463Z,6.50
2018-07-24T11:01:29.814Z,6.83
2018-07-24T11:03:58.108Z,5.78
2018-07-24T11:06:26.765Z,6.35
2018-07-24T11:08:55.416Z,6.78
2018-07-24T11:11:23.679Z,7.33
2018-07-24T11:13:51.975Z,6.05
2018-07-24T11:16:20.242Z,6.22
2018-07-24T11:18:48.489Z,6.37
2018-07-24T11:21:16.763Z,8.13
2018-07-24T11:23:45.029Z,6.25
2018-07-24T11:26:13.295Z,6.50
2018-07-24T11:28:41.584Z,8.20
2018-07-24T11:31:09.839Z,5.95
2018-07-24T11:33:38.315Z,6.10
2018-07-24T11:36:06.946Z,6.17
2018-07-24T11:38:35.230Z,6.25
2018-07-24T11:41:04.920Z,6.35
2018-07-24T11:43:37.668Z,7.00
2018-07-24T11:46:07.565Z,8.70
2018-07-24T11:48:36.446Z,6.50
2018-07-24T11:51:07.154Z,5.75
2018-07-24T11:53:36.318Z,6.08
2018-07-24T11:56:06.136Z,5.95
2018-07-24T11:58:36.592Z,7.10
2018-07-24T12:01:05.633Z,6.08
2018-07-24T12:03:34.558Z,5.50
2018-07-24T12:06:03.371Z,5.62
2018-07-24T12:08:32.214Z,5.62
2018-07-24T12:11:01.054Z,7.67
2018-07-24T12:13:30.900Z,5.67
2018-07-24T12:15:59.932Z,5.85
2018-07-24T12:18:29.461Z,5.55
2018-07-24T12:20:58.428Z,6.20
2018-07-24T12:23:26.806Z,5.85
2018-07-24T12:25:59.992Z,6.25
2018-07-24T12:28:30.125Z,5.67
2018-07-24T12:31:00.719Z,6.12
2018-07-24T12:33:29.023Z,5.65
2018-07-24T12:35:59.237Z,5.62
2018-07-24T12:38:29.131Z,5.87
2018-07-24T12:40:57.195Z,5.42
2018-07-24T12:43:25.501Z,5.67
2018-07-24T12:45:59.118Z,6.17
2018-07-24T12:48:29.174Z,5.60
2018-07-24T12:51:00.045Z,5.80
2018-07-24T12:53:28.546Z,5.60
2018-07-24T12:56:02.787Z,6.05
2018-07-24T12:58:31.305Z,6.03
2018-07-24T13:01:00.301Z,5.20
2018-07-24T13:03:29.251Z,5.62
2018-07-24T13:05:58.288Z,5.58
2018-07-24T13:08:27.528Z,5.42
2018-07-24T13:10:56.647Z,5.78
2018-07-24T13:13:25.698Z,6.12
2018-07-24T13:15:56.582Z,5.37
2018-07-24T13:18:25.391Z,6.50
2018-07-24T13:20:54.170Z,6.12
2018-07-24T13:23:23.351Z,5.53
2018-07-24T13:25:52.345Z,5.40
2018-07-24T13:28:21.295Z,6.67
2018-07-24T13:30:50.212Z,5.42
2018-07-24T13:33:18.911Z,5.45
2018-07-24T13:35:47.863Z,5.47
2018-07-24T13:38:16.819Z,5.30
2018-07-24T13:40:45.283Z,7.35
2018-07-24T13:43:13.966Z,8.50
2018-07-24T13:45:42.985Z,5.70
2018-07-24T13:48:11.816Z,8.15
2018-07-24T13:50:40.560Z,5.37
2018-07-24T13:53:09.496Z,5.78
2018-07-24T13:55:37.848Z,5.47
2018-07-24T13:58:06.642Z,5.97
2018-07-24T14:00:35.681Z,8.73
2018-07-24T14:03:04.517Z,5.62
2018-07-24T14:05:33.494Z,6.45
2018-07-24T14:08:02.375Z,5.50
2018-07-24T14:10:31.669Z,5.40
2018-07-24T14:13:00.735Z,5.90
2018-07-24T14:15:29.600Z,6.70
2018-07-24T14:20:19.003Z,6.25
2018-07-24T14:22:48.689Z,6.08
2018-07-24T14:25:17.669Z,5.97
2018-07-24T14:27:46.674Z,5.80
2018-07-24T14:30:16.317Z,5.72
2018-07-24T14:32:45.238Z,5.90
2018-07-24T14:35:14.121Z,8.38
2018-07-24T14:37:42.831Z,7.25
2018-07-24T14:40:11.688Z,5.20
2018-07-24T14:42:40.750Z,6.17
2018-07-24T14:45:09.855Z,5.97
2018-07-24T14:47:39.181Z,5.58
2018-07-24T14:50:08.100Z,6.20
2018-07-24T14:52:37.262Z,9.08
2018-07-24T14:55:06.188Z,6.60
2018-07-24T14:57:35.128Z,11.43
2018-07-24T15:00:03.722Z,5.75
2018-07-24T15:02:33.863Z,5.75
2018-07-24T15:05:03.401Z,6.03
2018-07-24T15:07:32.768Z,5.25
2018-07-24T15:10:02.381Z,6.50
2018-07-24T15:12:31.625Z,6.15
2018-07-24T15:15:02.119Z,6.58
2018-07-24T15:17:31.080Z,6.45
2018-07-24T15:20:00.749Z,7.22
2018-07-24T15:22:29.667Z,6.20
2018-07-24T15:24:58.472Z,6.75
2018-07-24T15:27:27.997Z,5.33
2018-07-24T15:29:57.168Z,6.33
2018-07-24T15:32:26.157Z,5.47
2018-07-24T15:34:54.743Z,6.03
2018-07-24T15:37:23.651Z,5.47
2018-07-24T15:39:52.146Z,5.47
2018-07-24T15:42:21.152Z,7.95
2018-07-24T15:44:50.051Z,5.55
2018-07-24T15:47:18.974Z,5.58
2018-07-24T15:49:47.830Z,5.75
2018-07-24T15:52:16.743Z,7.62
2018-07-24T15:54:45.765Z,6.15
2018-07-24T15:57:14.553Z,5.10
2018-07-24T15:59:43.589Z,5.65
2018-07-24T16:02:12.623Z,5.50
2018-07-24T16:04:42.245Z,5.15
2018-07-24T16:07:11.329Z,7.15
2018-07-24T16:09:39.920Z,4.97
2018-07-24T16:12:09.743Z,5.62
2018-07-24T16:14:38.842Z,5.87
2018-07-24T16:17:08.074Z,6.58
2018-07-24T16:19:36.572Z,7.10
2018-07-24T16:22:05.035Z,7.28
2018-07-24T16:24:33.754Z,7.22
2018-07-24T16:27:02.040Z,7.03
2018-07-24T16:29:30.619Z,4.90
2018-07-24T16:31:58.935Z,5.20
2018-07-24T16:34:27.806Z,5.45
2018-07-24T16:36:56.769Z,5.78
2018-07-24T16:39:25.550Z,6.25
2018-07-24T16:41:54.626Z,5.15
2018-07-24T16:44:23.545Z,5.62
2018-07-24T16:46:52.255Z,4.67
2018-07-24T16:49:21.252Z,5.37
2018-07-24T16:51:50.201Z,6.03
2018-07-24T16:54:19.152Z,6.85
2018-07-24T16:56:47.980Z,8.60
2018-07-24T16:59:16.960Z,4.58
2018-07-24T17:01:45.832Z,5.58
2018-07-24T17:04:14.619Z,5.40
2018-07-24T17:06:43.529Z,5.20
2018-07-24T17:09:12.874Z,5.35
2018-07-24T17:11:41.796Z,5.17
2018-07-24T17:14:10.880Z,5.17
2018-07-24T17:16:39.737Z,5.25
2018-07-24T17:19:08.591Z,5.47
2018-07-24T17:21:38.469Z,5.22
2018-07-24T17:24:07.199Z,4.90
2018-07-24T17:26:36.299Z,7.62
2018-07-24T17:29:05.279Z,5.50
2018-07-24T17:31:34.364Z,5.00
2018-07-24T17:34:03.348Z,5.33
2018-07-24T17:36:32.509Z,5.35
2018-07-24T17:39:01.418Z,5.78
2018-07-24T17:41:30.628Z,5.90
2018-07-24T17:43:59.632Z,5.45
2018-07-24T17:46:28.676Z,5.75
2018-07-24T17:48:57.862Z,5.92
2018-07-24T17:51:26.923Z,5.67
2018-07-24T17:53:55.865Z,5.58
2018-07-24T17:56:24.922Z,5.67
2018-07-24T17:58:53.825Z,5.42
2018-07-24T18:01:23.190Z,5.92
2018-07-24T18:03:52.176Z,5.72
2018-07-24T18:06:21.099Z,5.75
2018-07-24T18:08:50.193Z,6.75
2018-07-24T18:11:18.971Z,7.92
2018-07-24T18:13:48.030Z,5.28
2018-07-24T18:16:16.873Z,6.62
2018-07-24T18:18:46.065Z,6.03
2018-07-24T18:21:15.081Z,7.05
2018-07-24T18:23:43.497Z,5.85
2018-07-24T18:26:11.762Z,5.53
2018-07-24T18:28:40.044Z,6.62
2018-07-24T18:31:08.343Z,5.90
2018-07-24T18:33:36.895Z,6.50
2018-07-24T18:36:05.223Z,6.22
2018-07-24T18:38:33.791Z,6.67
2018-07-24T18:41:02.674Z,7.37
2018-07-24T18:43:31.017Z,6.47
2018-07-24T18:45:59.312Z,7.27
2018-07-24T18:48:27.735Z,7.13
2018-07-24T18:50:56.048Z,6.50
2018-07-24T18:53:24.665Z,6.83
2018-07-24T18:55:52.921Z,6.77
2018-07-24T18:58:21.180Z,6.90
2018-07-24T19:00:49.440Z,7.10
2018-07-24T19:03:17.703Z,7.33
2018-07-24T19:05:45.970Z,7.10
2018-07-24T19:08:14.235Z,8.63
2018-07-24T19:10:42.548Z,10.63
2018-07-24T19:13:10.881Z,6.87
2018-07-24T19:15:39.158Z,7.93
2018-07-24T19:18:07.485Z,7.63
2018-07-24T19:20:36.835Z,8.23
2018-07-24T19:23:05.134Z,10.50
2018-07-24T19:25:34.825Z,7.33
2018-07-24T19:28:03.147Z,9.20
2018-07-24T19:30:31.412Z,8.47
2018-07-24T19:32:59.417Z,8.67
2018-07-24T19:35:27.744Z,9.00
2018-07-24T19:37:56.016Z,8.50
2018-07-24T19:40:24.306Z,11.90
2018-07-24T19:42:52.791Z,11.70
2018-07-24T19:45:21.066Z,8.00
2018-07-24T19:47:49.372Z,8.57
2018-07-24T19:50:17.642Z,8.40
2018-07-24T19:52:45.923Z,8.83
2018-07-24T19:55:14.191Z,13.30
2018-07-24T19:57:42.468Z,8.50
2018-07-24T20:00:11.200Z,8.80
2018-07-24T20:02:39.695Z,9.43
2018-07-24T20:05:07.981Z,8.80
2018-07-24T20:07:36.250Z,9.97
2018-07-24T20:10:05.108Z,9.97
2018-07-24T20:12:33.348Z,10.77
2018-07-24T20:15:01.649Z,8.97
2018-07-24T20:17:29.938Z,11.20
2018-07-24T20:19:58.305Z,8.83
2018-07-24T20:22:26.582Z,8.40
2018-07-24T20:24:54.580Z,10.07
2018-07-24T20:27:22.586Z,9.43
2018-07-24T20:29:50.848Z,10.30
2018-07-24T20:32:19.114Z,9.20
2018-07-24T20:34:47.379Z,8.90
2018-07-24T20:37:15.493Z,12.47
2018-07-24T20:39:43.758Z,10.23
2018-07-24T20:42:12.079Z,11.43
2018-07-24T20:44:40.623Z,8.97
2018-07-24T20:47:08.904Z,9.60
2018-07-24T20:49:37.208Z,9.37
2018-07-24T20:52:05.479Z,9.83
2018-07-24T20:54:33.750Z,8.90
2018-07-24T20:57:02.050Z,10.07
2018-07-24T20:59:30.373Z,14.90
2018-07-24T21:01:58.691Z,10.53
2018-07-24T21:04:26.977Z,10.03
2018-07-24T21:06:54.995Z,12.83
2018-07-24T21:09:23.293Z,10.10
2018-07-24T21:11:51.564Z,10.50
2018-07-24T21:14:19.830Z,10.10
2018-07-24T21:16:49.340Z,13.17
2018-07-24T21:19:17.636Z,9.70
2018-07-24T21:21:45.894Z,10.10
2018-07-24T21:24:14.151Z,11.03
2018-07-24T21:26:42.423Z,11.83
2018-07-24T21:29:10.729Z,10.50
2018-07-24T21:31:39.015Z,10.27
2018-07-24T21:34:07.301Z,10.37
2018-07-24T21:36:36.003Z,10.40
2018-07-24T21:39:07.523Z,10.23
2018-07-24T21:41:35.942Z,9.90
2018-07-24T21:44:04.637Z,10.73
2018-07-24T21:46:32.932Z,10.90
2018-07-24T21:49:01.326Z,10.90
2018-07-24T21:51:29.676Z,10.90
2018-07-24T21:53:58.018Z,11.50
2018-07-24T21:56:26.581Z,12.23
2018-07-24T21:58:54.867Z,10.77
2018-07-24T22:01:25.082Z,10.90
2018-07-24T22:03:53.442Z,10.63
2018-07-24T22:06:21.728Z,10.97
2018-07-24T22:08:50.160Z,10.63
2018-07-24T22:11:18.339Z,11.37
2018-07-24T22:13:46.618Z,11.40
2018-07-24T22:16:14.909Z,11.47
2018-07-24T22:18:43.216Z,12.00
2018-07-24T22:21:11.502Z,12.53
2018-07-24T22:23:39.807Z,11.93
2018-07-24T22:26:08.094Z,12.73
2018-07-24T22:28:36.458Z,11.53
2018-07-24T22:31:04.769Z,11.67
2018-07-24T22:33:33.067Z,11.77
2018-07-24T22:36:01.350Z,13.33
2018-07-24T22:38:29.622Z,12.17
2018-07-24T22:40:57.898Z,12.03
2018-07-24T22:43:26.171Z,11.70
2018-07-24T22:45:54.508Z,12.50
2018-07-24T22:48:22.794Z,12.47
2018-07-24T22:50:51.108Z,11.70
2018-07-24T22:53:19.395Z,12.43
2018-07-24T22:55:47.671Z,11.83
2018-07-24T22:58:15.962Z,12.00
2018-07-24T23:00:44.249Z,12.77
2018-07-24T23:03:13.366Z,12.83
2018-07-24T23:05:41.681Z,13.00
2018-07-24T23:08:10.018Z,12.63
2018-07-24T23:10:38.307Z,12.53
2018-07-24T23:13:06.598Z,11.60
2018-07-24T23:15:34.934Z,11.80
2018-07-24T23:18:03.188Z,11.83
2018-07-24T23:20:31.480Z,12.50
2018-07-24T23:22:59.807Z,12.43
2018-07-24T23:25:28.085Z,12.07
2018-07-24T23:27:56.387Z,11.83
2018-07-24T23:30:24.666Z,14.27
2018-07-24T23:32:52.941Z,12.20
2018-07-24T23:35:21.219Z,12.87
2018-07-24T23:37:49.517Z,12.37
2018-07-24T23:40:17.819Z,12.10
2018-07-24T23:42:46.157Z,12.07
2018-07-24T23:45:14.428Z,12.47
2018-07-24T23:47:42.707Z,12.30
2018-07-24T23:50:10.989Z,11.83
2018-07-24T23:52:39.387Z,13.10
2018-07-24T23:55:07.691Z,12.23
2018-07-24T23:57:36.024Z,12.00
